createdAt,value
2018-05-02T00:00:52.295Z,2.1
2018-05-02T00:06:15.917Z,2.1
2018-05-02T00:10:35.078Z,2.3
2018-05-02T00:16:13.981Z,2.3
2018-05-02T00:20:33.136Z,2.1
2018-05-02T00:25:58.840Z,2.1
2018-05-02T00:31:23.696Z,2.1
2018-05-02T00:35:43.061Z,2.1
2018-05-02T00:41:07.691Z,2.1
2018-05-02T00:46:32.109Z,1.9
2018-05-02T00:50:51.360Z,2.1
2018-05-02T00:56:15.081Z,2.1
2018-05-02T01:00:35.235Z,1.9
2018-05-02T01:05:58.862Z,2.1
2018-05-02T01:11:23.367Z,2.1
2018-05-02T01:15:45.531Z,2
2018-05-02T01:21:09.167Z,1.9
2018-05-02T01:25:31.219Z,2.4
2018-05-02T01:30:55.562Z,1.9
2018-05-02T01:36:20.083Z,2
2018-05-02T01:40:39.308Z,2
2018-05-02T01:46:02.746Z,2.3
2018-05-02T01:51:27.040Z,2.1
2018-05-02T01:55:48.189Z,1.8
2018-05-02T02:01:11.705Z,1.8
2018-05-02T02:05:30.948Z,1.8
2018-05-02T02:10:54.385Z,1.8
2018-05-02T02:16:22.784Z,1.9
2018-05-02T02:20:41.954Z,2
2018-05-02T02:26:05.379Z,1.9
2018-05-02T02:31:29.897Z,1.9
2018-05-02T02:35:49.076Z,1.9
2018-05-02T02:41:13.617Z,1.8
2018-05-02T02:45:33.080Z,1.9
2018-05-02T02:50:57.603Z,1.7
2018-05-02T02:56:20.981Z,2.1
2018-05-02T03:00:40.956Z,1.7
2018-05-02T03:06:04.664Z,1.6
2018-05-02T03:11:29.184Z,1.8
2018-05-02T03:15:49.387Z,1.7
2018-05-02T03:21:18.811Z,1.8
2018-05-02T03:25:36.800Z,1.7
2018-05-02T03:31:01.344Z,1.8
2018-05-02T03:36:25.745Z,1.6
2018-05-02T03:40:44.906Z,1.8
2018-05-02T03:46:08.289Z,1.8
2018-05-02T03:50:27.356Z,1.8
2018-05-02T03:55:51.766Z,1.7
2018-05-02T04:01:15.094Z,2.1
2018-05-02T04:05:34.334Z,1.9
2018-05-02T04:10:58.052Z,1.8
2018-05-02T04:16:21.455Z,1.8
2018-05-02T04:20:44.619Z,1.9
2018-05-02T04:26:08.067Z,1.7
2018-05-02T04:30:31.237Z,1.9
2018-05-02T04:35:54.856Z,1.7
2018-05-02T04:41:19.376Z,1.7
2018-05-02T04:45:38.628Z,1.6
2018-05-02T04:51:03.244Z,1.6
2018-05-02T04:56:25.839Z,1.5
2018-05-02T05:00:45.009Z,1.5
2018-05-02T05:06:09.004Z,1.8
2018-05-02T05:10:27.427Z,1.8
2018-05-02T05:15:51.053Z,1.6
2018-05-02T05:21:20.335Z,1.6
2018-05-02T05:25:41.695Z,1.7
2018-05-02T05:31:32.668Z,1.6
2018-05-02T05:35:55.045Z,1.6
2018-05-02T05:41:18.803Z,1.5
2018-05-02T05:45:42.464Z,1.6
2018-05-02T05:51:06.370Z,1.5
2018-05-02T05:56:30.985Z,1.7
2018-05-02T06:00:50.217Z,1.6
2018-05-02T06:06:13.511Z,1.6
2018-05-02T06:10:32.676Z,1.6
2018-05-02T06:15:56.994Z,2
2018-05-02T06:21:20.521Z,2.1
2018-05-02T06:25:39.782Z,1.9
2018-05-02T06:31:05.241Z,2.3
2018-05-02T06:36:30.367Z,2.1
2018-05-02T06:40:49.675Z,1.8
2018-05-02T06:46:14.406Z,1.7
2018-05-02T06:50:33.464Z,2
2018-05-02T06:55:58.097Z,1.7
2018-05-02T07:01:23.602Z,1.6
2018-05-02T07:05:42.857Z,1.9
2018-05-02T07:11:06.464Z,1.6
2018-05-02T07:20:49.132Z,1.9
2018-05-02T07:26:13.648Z,1.9
2018-05-02T07:30:35.810Z,1.8
2018-05-02T07:36:02.508Z,1.8
2018-05-02T07:41:27.144Z,1.8
2018-05-02T07:45:47.108Z,1.6
2018-05-02T07:51:10.762Z,1.8
2018-05-02T07:55:28.952Z,1.7
2018-05-02T08:00:52.517Z,1.7
2018-05-02T08:06:16.933Z,1.6
2018-05-02T08:10:37.411Z,1.8
2018-05-02T08:16:01.302Z,1.7
2018-05-02T08:21:26.982Z,1.9
2018-05-02T08:25:47.265Z,1.6
2018-05-02T08:31:14.837Z,1.6
2018-05-02T08:35:33.213Z,1.6
2018-05-02T08:40:56.841Z,1.7
2018-05-02T08:46:22.558Z,1.7
2018-05-02T08:50:41.920Z,1.6
2018-05-02T08:56:06.140Z,1.7
2018-05-02T09:01:30.476Z,1.6
2018-05-02T09:05:49.680Z,1.6
2018-05-02T09:11:13.308Z,1.9
2018-05-02T09:15:32.587Z,1.4
2018-05-02T09:20:59.120Z,1.4
2018-05-02T09:26:23.738Z,1.7
2018-05-02T09:30:45.963Z,1.9
2018-05-02T09:36:10.680Z,1.7
2018-05-02T09:40:29.939Z,1.8
2018-05-02T09:45:57.550Z,1.6
2018-05-02T09:51:21.099Z,1.8
2018-05-02T09:55:40.259Z,1.6
2018-05-02T10:01:04.768Z,1.8
2018-05-02T10:06:29.268Z,1.5
2018-05-02T10:10:47.540Z,1.6
2018-05-02T10:16:10.966Z,1.6
2018-05-02T10:21:34.489Z,1.7
2018-05-02T10:25:56.551Z,1.6
2018-05-02T10:31:22.775Z,1.6
2018-05-02T10:35:41.916Z,1.6
2018-05-02T10:41:07.486Z,1.9
2018-05-02T10:46:33.979Z,1.7
2018-05-02T10:50:54.029Z,1.7
2018-05-02T11:00:54.315Z,1.8
2018-05-02T11:06:18.766Z,1.5
2018-05-02T11:10:37.914Z,2
2018-05-02T11:16:01.342Z,1.7
2018-05-02T11:21:25.785Z,1.7
2018-05-02T11:25:44.948Z,1.6
2018-05-02T11:31:11.257Z,1.5
2018-05-02T11:36:35.875Z,1.4
2018-05-02T11:40:56.137Z,1.5
2018-05-02T11:46:20.593Z,1.7
2018-05-02T11:50:39.959Z,1.5
2018-05-02T11:56:03.571Z,1.3
2018-05-02T12:01:31.175Z,1.6
2018-05-02T12:05:50.404Z,1.4
2018-05-02T12:11:14.740Z,1.4
2018-05-02T12:15:34.920Z,1.5
2018-05-02T12:20:59.341Z,1.3
2018-05-02T12:26:22.765Z,1.5
2018-05-02T12:30:45.027Z,1.5
2018-05-02T12:36:09.534Z,1.5
2018-05-02T12:41:32.982Z,1.7
2018-05-02T12:45:55.139Z,2
2018-05-02T12:51:18.645Z,2.2
2018-05-02T12:55:37.780Z,2.4
2018-05-02T13:01:05.199Z,2.8
2018-05-02T13:06:28.512Z,2.6
2018-05-02T13:10:47.705Z,2.5
2018-05-02T13:16:11.106Z,2.3
2018-05-02T13:21:36.056Z,2.2
2018-05-02T13:25:55.386Z,2.4
2018-05-02T13:31:18.806Z,2.6
2018-05-02T13:35:38.252Z,2.4
2018-05-02T13:41:01.630Z,2.1
2018-05-02T13:46:25.956Z,2
2018-05-02T13:50:48.320Z,2.2
2018-05-02T13:56:12.929Z,1.7
2018-05-02T14:00:36.997Z,1.8
2018-05-02T14:06:01.750Z,1.8
2018-05-02T14:11:26.233Z,1.6
2018-05-02T14:15:46.584Z,2
2018-05-02T14:21:11.108Z,1.8
2018-05-02T14:26:35.414Z,2
2018-05-02T14:30:53.873Z,1.7
2018-05-02T14:36:18.373Z,2.4
2018-05-02T14:40:38.672Z,2.2
2018-05-02T14:46:02.895Z,1.9
2018-05-02T14:51:27.343Z,1.7
2018-05-02T14:55:45.442Z,1.9
2018-05-02T15:01:13.977Z,1.9
2018-05-02T15:06:37.509Z,1.7
2018-05-02T15:10:56.751Z,1.7
2018-05-02T15:16:20.308Z,1.8
2018-05-02T15:20:40.270Z,1.9
2018-05-02T15:26:03.899Z,1.7
2018-05-02T15:31:29.323Z,1.9
2018-05-02T15:35:48.727Z,1.8
2018-05-02T15:41:15.545Z,1.9
2018-05-02T15:46:39.350Z,1.7
2018-05-02T15:50:59.512Z,1.8
2018-05-02T15:56:24.844Z,1.9
2018-05-02T16:00:49.908Z,2.1
2018-05-02T16:06:13.156Z,2.1
2018-05-02T16:11:36.763Z,2.3
2018-05-02T16:15:55.934Z,2.1
2018-05-02T16:21:20.292Z,2.1
2018-05-02T16:31:18.368Z,2.3
2018-05-02T16:36:42.772Z,2.3
2018-05-02T16:41:00.821Z,2.7
2018-05-02T16:46:25.257Z,2.5
2018-05-02T16:50:44.410Z,2.8
2018-05-02T16:56:08.835Z,4.3
2018-05-02T17:01:33.147Z,2.7
2018-05-02T17:05:52.395Z,2.8
2018-05-02T17:11:16.894Z,2.9
2018-05-02T17:16:41.356Z,2.9
2018-05-02T17:21:00.965Z,2.9
2018-05-02T17:26:27.984Z,3
2018-05-02T17:30:47.143Z,2.9
2018-05-02T17:36:10.781Z,2.8
2018-05-02T17:41:36.203Z,2.6
2018-05-02T17:45:56.274Z,2.8
2018-05-02T17:51:20.923Z,3.3
2018-05-02T17:55:40.149Z,2.4
2018-05-02T18:01:03.667Z,3
2018-05-02T18:06:28.077Z,2.9
2018-05-02T18:10:48.239Z,2.6
2018-05-02T18:16:13.099Z,2.8
2018-05-02T18:21:43.517Z,2.4
2018-05-02T18:26:03.732Z,2.3
2018-05-02T18:31:35.644Z,2.8
2018-05-02T18:35:55.136Z,2.6
2018-05-02T18:41:18.998Z,2.6
2018-05-02T18:46:43.420Z,2.5
2018-05-02T18:51:02.387Z,2.6
2018-05-02T18:56:27.781Z,2.5
2018-05-02T19:00:47.164Z,2.5
2018-05-02T19:06:11.685Z,2.5
2018-05-02T19:11:36.037Z,2.3
2018-05-02T19:15:55.282Z,2.5
2018-05-02T19:21:20.886Z,2.2
2018-05-02T19:31:07.592Z,2.4
2018-05-02T19:36:31.316Z,2.1
2018-05-02T19:40:50.474Z,2.2
2018-05-02T19:46:15.992Z,2.3
2018-05-02T19:51:40.419Z,2.2
2018-05-02T19:55:59.577Z,2.1
2018-05-02T20:01:23.899Z,2.2
2018-05-02T20:06:48.328Z,2
2018-05-02T20:11:07.590Z,2.2
2018-05-02T20:16:31.921Z,2
2018-05-02T20:20:50.978Z,2.2
2018-05-02T20:26:15.577Z,2
2018-05-02T20:31:42.306Z,2.1
2018-05-02T20:36:00.694Z,2
2018-05-02T20:41:24.098Z,2.1
2018-05-02T20:46:48.719Z,2.1
2018-05-02T20:51:08.466Z,2.4
2018-05-02T20:56:34.458Z,2.1
2018-05-02T21:00:53.695Z,2
2018-05-02T21:06:17.380Z,2.1
2018-05-02T21:11:42.953Z,2.3
2018-05-02T21:16:02.242Z,2.2
2018-05-02T21:21:26.657Z,2
2018-05-02T21:25:46.524Z,2
2018-05-02T21:31:15.295Z,2
2018-05-02T21:36:40.920Z,2.1
2018-05-02T21:40:59.334Z,1.9
2018-05-02T21:46:23.381Z,1.9
2018-05-02T21:51:46.984Z,2
2018-05-02T22:01:45.125Z,1.9
2018-05-02T22:06:04.589Z,2.1
2018-05-02T22:11:29.315Z,1.8
2018-05-02T22:15:48.410Z,2
2018-05-02T22:21:11.943Z,1.7
2018-05-02T22:26:36.187Z,1.9
2018-05-02T22:30:55.400Z,2
2018-05-02T22:36:18.836Z,2
2018-05-02T22:41:42.372Z,2
2018-05-02T22:46:02.754Z,1.8
2018-05-02T22:51:27.253Z,1.8
2018-05-02T22:56:56.671Z,1.8
2018-05-02T23:01:17.237Z,1.8
2018-05-02T23:06:41.498Z,1.8
2018-05-02T23:11:03.663Z,1.8
2018-05-02T23:16:27.187Z,1.8
2018-05-02T23:21:51.503Z,1.7
2018-05-02T23:26:10.751Z,1.9
2018-05-02T23:31:35.291Z,1.7
2018-05-02T23:35:54.555Z,1.7
2018-05-02T23:41:19.099Z,1.7
2018-05-02T23:46:43.397Z,1.7
2018-05-02T23:51:02.552Z,1.8
2018-05-02T23:56:25.872Z,1.7
